Time;durP1;ratioP1;P1;durP2;ratioP2;P2;SDS_P1;SDS_P2;PMS_P1;PMS_P2;Temp;Humidity;BMP_temperature;BMP_pressure;BME280_temperature;BME280_humidity;BME280_pressure;Samples;Min_cycle;Max_cycle;Signal;HPM_P1;HPM_P2
2023/05/05 00:02:02;;;;;;;3.10;2.22;;;;;;;;;;8283073;28;21201;-75
2023/05/05 00:06:03;;;;;;;2.53;2.03;;;;;;;;;;8283202;28;20153;-74
2023/05/05 00:10:03;;;;;;;4.03;1.92;;;;;;;;;;8289086;28;20764;-74
2023/05/05 00:14:03;;;;;;;4.30;2.65;;;;;;;;;;8283869;28;20033;-74
2023/05/05 00:18:04;;;;;;;3.85;2.70;;;;;;;;;;8278142;28;20047;-75
2023/05/05 00:22:04;;;;;;;2.83;2.20;;;;;;;;;;8285048;28;20061;-74
2023/05/05 00:26:04;;;;;;;3.03;2.10;;;;;;;;;;8287888;28;20033;-74
2023/05/05 00:30:04;;;;;;;2.00;1.90;;;;;;;;;;8287975;28;20730;-75
2023/05/05 00:34:05;;;;;;;3.20;2.20;;;;;;;;;;8289736;28;20155;-74
2023/05/05 00:38:05;;;;;;;7.05;2.25;;;;;;;;;;8297337;28;20839;-74
2023/05/05 00:42:06;;;;;;;4.72;2.38;;;;;;;;;;8297247;28;20147;-75
2023/05/05 00:46:16;;;;;;;2.83;1.85;;;;;;;;;;8284796;28;20474;-74
2023/05/05 00:50:21;;;;;;;3.22;2.22;;;;;;;;;;8277864;28;20076;-74
2023/05/05 00:54:21;;;;;;;3.90;2.47;;;;;;;;;;8285953;28;20489;-74
2023/05/05 00:58:22;;;;;;;2.50;2.17;;;;;;;;;;8285875;28;20029;-74
2023/05/05 01:02:22;;;;;;;6.00;2.42;;;;;;;;;;8284776;28;20062;-74
2023/05/05 01:06:29;;;;;;;4.28;2.47;;;;;;;;;;8286825;28;20124;-74
2023/05/05 01:10:35;;;;;;;3.90;2.28;;;;;;;;;;8283383;28;20022;-74
2023/05/05 01:14:38;;;;;;;4.70;2.30;;;;;;;;;;8288232;28;20029;-74
2023/05/05 01:18:59;;;;;;;2.88;2.40;;;;;;;;;;8288687;28;20038;-74
2023/05/05 01:23:03;;;;;;;4.05;2.60;;;;;;;;;;8295112;28;20037;-74
2023/05/05 01:27:09;;;;;;;5.88;2.60;;;;;;;;;;8288605;28;20033;-74
2023/05/05 01:31:12;;;;;;;3.75;2.80;;;;;;;;;;8282526;28;20037;-74
2023/05/05 01:35:14;;;;;;;4.13;2.47;;;;;;;;;;8301084;28;20018;-74
2023/05/05 01:39:15;;;;;;;3.63;2.40;;;;;;;;;;8293581;28;20761;-74
2023/05/05 01:43:17;;;;;;;3.17;2.50;;;;;;;;;;8289381;28;20060;-74
2023/05/05 01:47:18;;;;;;;5.47;2.42;;;;;;;;;;8290761;28;20032;-74
2023/05/05 01:51:21;;;;;;;5.05;2.40;;;;;;;;;;8289887;28;20093;-74
2023/05/05 01:55:23;;;;;;;4.38;2.55;;;;;;;;;;8283638;28;20071;-73
2023/05/05 01:59:24;;;;;;;2.92;2.50;;;;;;;;;;8277611;28;20580;-74
2023/05/05 02:03:26;;;;;;;3.35;2.58;;;;;;;;;;8288740;28;20037;-74
2023/05/05 02:07:26;;;;;;;3.80;2.58;;;;;;;;;;8291406;28;20506;-74
2023/05/05 02:11:27;;;;;;;5.13;2.67;;;;;;;;;;8295058;28;20724;-74
2023/05/05 02:15:28;;;;;;;3.20;2.40;;;;;;;;;;8289371;28;20695;-74
2023/05/05 02:19:30;;;;;;;6.95;2.65;;;;;;;;;;8289277;28;20018;-74
2023/05/05 02:23:30;;;;;;;3.65;2.80;;;;;;;;;;8289999;28;20031;-74
2023/05/05 02:27:32;;;;;;;5.18;2.60;;;;;;;;;;8290350;28;20054;-73
2023/05/05 02:31:40;;;;;;;3.88;2.70;;;;;;;;;;8288807;28;20148;-74
2023/05/05 02:35:41;;;;;;;3.75;2.58;;;;;;;;;;8285576;28;20471;-74
2023/05/05 02:39:45;;;;;;;3.75;2.78;;;;;;;;;;8293200;28;21201;-74
2023/05/05 02:43:47;;;;;;;4.32;2.53;;;;;;;;;;8285436;28;20026;-74
2023/05/05 02:47:47;;;;;;;2.70;2.47;;;;;;;;;;8287966;28;20033;-74
2023/05/05 02:51:48;;;;;;;5.10;2.55;;;;;;;;;;8293069;28;20720;-74
2023/05/05 02:55:53;;;;;;;6.00;2.65;;;;;;;;;;8292385;28;20029;-74
2023/05/05 03:00:14;;;;;;;2.60;2.40;;;;;;;;;;8285188;28;20103;-74
2023/05/05 03:04:16;;;;;;;3.80;2.65;;;;;;;;;;8251794;28;20423;-74
2023/05/05 03:08:19;;;;;;;3.95;2.53;;;;;;;;;;8248589;28;20104;-74
2023/05/05 03:12:21;;;;;;;4.83;2.63;;;;;;;;;;8251167;28;20069;-74
2023/05/05 03:16:22;;;;;;;3.70;2.50;;;;;;;;;;8249368;28;20277;-74
2023/05/05 03:20:22;;;;;;;4.32;2.50;;;;;;;;;;8250090;28;20028;-74
2023/05/05 03:24:23;;;;;;;3.53;2.47;;;;;;;;;;8253788;28;20040;-74
2023/05/05 03:28:23;;;;;;;5.80;2.63;;;;;;;;;;8246855;28;20037;-74
2023/05/05 03:32:23;;;;;;;3.03;2.70;;;;;;;;;;8252342;28;20041;-74
2023/05/05 03:36:23;;;;;;;2.65;2.40;;;;;;;;;;8249991;28;20033;-74
2023/05/05 03:40:23;;;;;;;5.10;2.60;;;;;;;;;;8251294;28;20033;-74
2023/05/05 03:44:24;;;;;;;3.03;2.40;;;;;;;;;;8253646;28;20069;-74
2023/05/05 03:48:24;;;;;;;2.90;2.70;;;;;;;;;;8251163;28;20125;-74
2023/05/05 03:52:24;;;;;;;2.97;2.63;;;;;;;;;;8253611;28;20057;-74
2023/05/05 03:56:24;;;;;;;3.38;2.90;;;;;;;;;;8256296;28;20021;-74
2023/05/05 04:00:25;;;;;;;6.25;2.70;;;;;;;;;;8260219;28;20053;-74
2023/05/05 04:04:25;;;;;;;7.03;3.05;;;;;;;;;;8260109;28;20482;-74
2023/05/05 04:08:25;;;;;;;4.88;2.80;;;;;;;;;;8257723;28;20481;-74
2023/05/05 04:12:25;;;;;;;4.93;2.65;;;;;;;;;;8260456;28;20026;-74
2023/05/05 04:16:26;;;;;;;3.17;2.65;;;;;;;;;;8255140;28;20157;-74
2023/05/05 04:20:26;;;;;;;9.60;2.83;;;;;;;;;;8256050;28;20141;-74
2023/05/05 04:24:26;;;;;;;6.30;2.70;;;;;;;;;;8259536;28;20144;-74
2023/05/05 04:28:26;;;;;;;9.68;2.80;;;;;;;;;;8259375;28;20037;-74
2023/05/05 04:32:27;;;;;;;5.50;2.57;;;;;;;;;;8258656;28;20076;-74
2023/05/05 04:36:27;;;;;;;7.93;2.83;;;;;;;;;;8261276;28;20957;-74
2023/05/05 04:40:27;;;;;;;12.30;2.90;;;;;;;;;;8261155;28;20335;-74
2023/05/05 04:44:27;;;;;;;8.38;2.72;;;;;;;;;;8264453;28;20026;-74
2023/05/05 04:48:27;;;;;;;10.93;2.53;;;;;;;;;;8266677;28;20038;-75
2023/05/05 04:52:27;;;;;;;9.20;2.35;;;;;;;;;;8262948;28;20379;-74
2023/05/05 04:56:30;;;;;;;13.05;2.38;;;;;;;;;;8268782;28;20022;-75
2023/05/05 05:00:31;;;;;;;6.00;3.07;;;;;;;;;;8266397;28;20042;-75
2023/05/05 05:04:31;;;;;;;10.80;2.75;;;;;;;;;;8273760;28;20045;-75
2023/05/05 05:08:31;;;;;;;6.78;2.72;;;;;;;;;;8270105;28;20030;-74
2023/05/05 05:12:31;;;;;;;8.63;2.42;;;;;;;;;;8270478;28;20042;-74
2023/05/05 05:16:31;;;;;;;14.60;3.05;;;;;;;;;;8269188;28;20594;-75
2023/05/05 05:20:32;;;;;;;6.05;2.75;;;;;;;;;;8271527;28;20085;-75
2023/05/05 05:24:33;;;;;;;4.93;2.80;;;;;;;;;;8271400;28;20033;-75
2023/05/05 05:28:33;;;;;;;5.55;2.50;;;;;;;;;;8278566;28;20922;-75
2023/05/05 05:32:34;;;;;;;13.20;2.53;;;;;;;;;;8304695;28;20403;-74
2023/05/05 05:36:34;;;;;;;11.03;3.10;;;;;;;;;;8316187;28;20041;-75
2023/05/05 05:40:35;;;;;;;7.45;2.78;;;;;;;;;;8316441;28;20283;-75
2023/05/05 05:44:35;;;;;;;13.85;2.63;;;;;;;;;;8306847;28;20026;-75
2023/05/05 05:48:35;;;;;;;10.50;2.40;;;;;;;;;;8279942;28;20041;-75
2023/05/05 05:52:35;;;;;;;4.72;2.13;;;;;;;;;;8281693;28;20040;-75
2023/05/05 05:56:35;;;;;;;8.73;2.40;;;;;;;;;;8272747;28;20030;-74
2023/05/05 06:00:36;;;;;;;5.95;2.50;;;;;;;;;;8275179;28;20038;-75
2023/05/05 06:04:36;;;;;;;5.38;2.10;;;;;;;;;;8274692;28;20025;-75
2023/05/05 06:08:36;;;;;;;3.50;2.20;;;;;;;;;;8279231;28;20018;-74
2023/05/05 06:12:36;;;;;;;8.35;2.20;;;;;;;;;;8288038;28;20025;-75
2023/05/05 06:16:36;;;;;;;3.55;2.00;;;;;;;;;;8289986;28;20073;-75
2023/05/05 06:20:36;;;;;;;15.30;2.20;;;;;;;;;;8317727;28;20044;-75
2023/05/05 06:24:37;;;;;;;4.28;1.90;;;;;;;;;;8318538;28;21046;-75
2023/05/05 06:28:38;;;;;;;6.13;1.90;;;;;;;;;;8307147;28;20021;-75
2023/05/05 06:32:38;;;;;;;3.03;1.70;;;;;;;;;;8308283;28;20069;-75
2023/05/05 06:36:38;;;;;;;2.15;1.73;;;;;;;;;;8308744;28;20025;-75
2023/05/05 06:40:38;;;;;;;4.88;1.75;;;;;;;;;;8272588;28;20033;-74
2023/05/05 06:44:38;;;;;;;3.90;1.95;;;;;;;;;;8295813;28;20032;-74
2023/05/05 06:48:40;;;;;;;4.35;1.90;;;;;;;;;;8297585;28;20494;-74
2023/05/05 06:52:40;;;;;;;4.05;1.80;;;;;;;;;;8291969;28;20749;-75
2023/05/05 06:56:40;;;;;;;7.35;1.70;;;;;;;;;;8301746;28;20084;-75
2023/05/05 07:00:41;;;;;;;3.83;1.97;;;;;;;;;;8307133;28;20048;-74
2023/05/05 07:04:42;;;;;;;3.10;1.70;;;;;;;;;;8308485;28;20052;-75
2023/05/05 07:08:45;;;;;;;4.75;1.70;;;;;;;;;;8302454;28;20028;-75
2023/05/05 07:12:45;;;;;;;5.10;1.80;;;;;;;;;;8302351;28;20025;-75
2023/05/05 07:16:45;;;;;;;4.77;1.63;;;;;;;;;;8295877;28;20553;-74
2023/05/05 07:20:46;;;;;;;4.00;1.50;;;;;;;;;;8292199;28;20056;-75
2023/05/05 07:24:46;;;;;;;2.27;1.50;;;;;;;;;;8298580;28;20040;-75
2023/05/05 07:28:47;;;;;;;5.55;1.67;;;;;;;;;;8305483;28;20304;-75
2023/05/05 07:32:48;;;;;;;3.00;1.52;;;;;;;;;;8294911;28;20041;-75
2023/05/05 07:36:48;;;;;;;3.35;1.40;;;;;;;;;;8296126;28;20064;-74
2023/05/05 07:40:49;;;;;;;1.80;1.20;;;;;;;;;;8303516;28;20116;-75
2023/05/05 07:44:49;;;;;;;2.35;1.30;;;;;;;;;;8304079;28;20888;-75
2023/05/05 07:48:49;;;;;;;3.67;1.33;;;;;;;;;;8303003;28;20095;-75
2023/05/05 07:52:49;;;;;;;8.00;1.20;;;;;;;;;;8294808;28;20127;-74
2023/05/05 07:56:50;;;;;;;4.45;1.30;;;;;;;;;;8297620;28;20025;-76
2023/05/05 08:00:50;;;;;;;1.83;0.90;;;;;;;;;;8298852;28;20442;-75
2023/05/05 08:04:50;;;;;;;3.50;0.93;;;;;;;;;;8303494;28;20541;-75
2023/05/05 08:08:52;;;;;;;1.27;0.80;;;;;;;;;;8295525;28;20041;-75
2023/05/05 08:12:53;;;;;;;1.73;0.75;;;;;;;;;;8298265;28;20471;-75
2023/05/05 08:16:55;;;;;;;2.30;0.90;;;;;;;;;;8302148;28;20042;-75
2023/05/05 08:20:55;;;;;;;1.92;0.88;;;;;;;;;;8306629;28;20597;-76
2023/05/05 08:24:55;;;;;;;3.47;0.80;;;;;;;;;;8303209;28;20175;-75
2023/05/05 08:28:59;;;;;;;1.70;0.88;;;;;;;;;;8302065;28;20345;-75
2023/05/05 08:32:59;;;;;;;2.78;0.90;;;;;;;;;;8310142;28;20556;-76
2023/05/05 08:37:00;;;;;;;2.17;0.70;;;;;;;;;;8306762;28;20033;-75
2023/05/05 08:41:00;;;;;;;1.60;0.80;;;;;;;;;;8291998;28;20040;-75
2023/05/05 08:45:00;;;;;;;2.23;1.03;;;;;;;;;;8302383;28;20288;-75
2023/05/05 08:49:02;;;;;;;2.35;0.93;;;;;;;;;;8303228;28;20030;-75
2023/05/05 08:53:02;;;;;;;2.35;1.00;;;;;;;;;;8307983;28;20025;-75
2023/05/05 08:57:06;;;;;;;4.25;0.88;;;;;;;;;;8318660;28;20095;-75
2023/05/05 09:01:07;;;;;;;1.50;1.00;;;;;;;;;;8307336;28;20038;-75
2023/05/05 09:05:07;;;;;;;2.15;1.00;;;;;;;;;;8311089;28;20405;-75
2023/05/05 09:09:08;;;;;;;1.45;0.90;;;;;;;;;;8313615;28;20895;-75
2023/05/05 09:13:08;;;;;;;1.88;1.00;;;;;;;;;;8318009;28;20037;-75
2023/05/05 09:17:21;;;;;;;2.05;0.90;;;;;;;;;;8306907;28;20037;-75
2023/05/05 09:21:21;;;;;;;1.65;0.80;;;;;;;;;;8319684;28;20797;-75
2023/05/05 09:25:22;;;;;;;8.45;1.00;;;;;;;;;;8318405;28;20653;-75
2023/05/05 09:29:22;;;;;;;1.60;0.93;;;;;;;;;;8306432;28;20032;-75
2023/05/05 09:33:32;;;;;;;2.72;0.80;;;;;;;;;;8300763;28;20073;-75
2023/05/05 09:37:32;;;;;;;5.35;1.10;;;;;;;;;;8311220;28;20029;-75
2023/05/05 09:41:36;;;;;;;2.25;0.80;;;;;;;;;;8310082;28;20092;-75
2023/05/05 09:45:36;;;;;;;2.83;0.73;;;;;;;;;;8309627;28;20038;-75
2023/05/05 09:49:37;;;;;;;1.37;0.93;;;;;;;;;;8311531;28;20072;-75
2023/05/05 09:53:38;;;;;;;5.63;1.10;;;;;;;;;;8303865;28;20025;-75
2023/05/05 09:57:39;;;;;;;2.03;1.00;;;;;;;;;;8331571;28;20634;-75
2023/05/05 10:01:42;;;;;;;2.72;1.02;;;;;;;;;;8308087;28;20037;-75
2023/05/05 10:05:55;;;;;;;1.05;0.80;;;;;;;;;;8311679;28;20025;-75
2023/05/05 10:09:56;;;;;;;2.70;1.17;;;;;;;;;;8309846;28;20036;-75
2023/05/05 10:13:56;;;;;;;4.05;0.80;;;;;;;;;;8315831;28;20021;-75
2023/05/05 10:17:58;;;;;;;2.28;0.95;;;;;;;;;;8312552;28;20520;-75
2023/05/05 10:22:00;;;;;;;5.23;1.00;;;;;;;;;;8311955;28;20025;-75
2023/05/05 10:26:02;;;;;;;3.30;0.88;;;;;;;;;;8311052;28;20026;-75
2023/05/05 10:30:03;;;;;;;4.50;1.00;;;;;;;;;;8299482;28;20025;-75
2023/05/05 10:34:14;;;;;;;2.35;0.80;;;;;;;;;;8273386;28;20124;-75
2023/05/05 10:38:15;;;;;;;1.45;0.80;;;;;;;;;;8262649;28;20123;-75
2023/05/05 10:42:15;;;;;;;2.20;0.70;;;;;;;;;;8274624;28;20056;-76
2023/05/05 10:46:16;;;;;;;4.35;0.80;;;;;;;;;;8276236;28;20085;-75
2023/05/05 10:50:16;;;;;;;2.22;0.88;;;;;;;;;;8272038;28;20084;-75
2023/05/05 10:54:19;;;;;;;4.28;0.93;;;;;;;;;;8275725;28;20026;-75
2023/05/05 10:58:32;;;;;;;1.85;0.70;;;;;;;;;;8271076;28;20054;-75
2023/05/05 11:02:32;;;;;;;4.18;0.80;;;;;;;;;;8259031;28;20128;-75
2023/05/05 11:06:33;;;;;;;1.63;0.80;;;;;;;;;;8263317;28;20684;-75
2023/05/05 11:10:43;;;;;;;2.63;0.80;;;;;;;;;;8262479;28;20060;-75
2023/05/05 11:14:43;;;;;;;3.72;0.73;;;;;;;;;;8260722;28;20022;-75
2023/05/05 11:18:43;;;;;;;1.80;0.68;;;;;;;;;;8262545;28;20690;-75
2023/05/05 11:23:02;;;;;;;1.25;0.70;;;;;;;;;;8276615;28;20465;-75
2023/05/05 11:27:02;;;;;;;1.13;0.70;;;;;;;;;;8283429;28;20053;-75
2023/05/05 11:31:02;;;;;;;1.30;0.70;;;;;;;;;;8281758;28;20165;-76
2023/05/05 11:35:04;;;;;;;2.47;0.90;;;;;;;;;;8292726;28;20284;-74
2023/05/05 11:39:21;;;;;;;1.02;0.60;;;;;;;;;;8288170;28;20056;-74
2023/05/05 11:43:21;;;;;;;2.17;0.70;;;;;;;;;;8279611;28;20080;-74
2023/05/05 11:47:22;;;;;;;4.30;1.02;;;;;;;;;;8276313;28;20026;-73
2023/05/05 11:51:22;;;;;;;0.88;0.80;;;;;;;;;;8280918;28;20021;-74
2023/05/05 11:55:22;;;;;;;1.50;0.80;;;;;;;;;;8271510;28;20034;-74
2023/05/05 11:59:22;;;;;;;1.10;0.70;;;;;;;;;;8272365;28;20040;-74
2023/05/05 12:03:22;;;;;;;0.75;0.63;;;;;;;;;;8296291;28;20041;-74
2023/05/05 12:07:27;;;;;;;1.83;0.63;;;;;;;;;;8298405;28;20430;-74
2023/05/05 12:11:27;;;;;;;3.92;1.02;;;;;;;;;;8296593;28;20052;-74
2023/05/05 12:15:28;;;;;;;6.38;1.05;;;;;;;;;;8300329;28;20058;-74
2023/05/05 12:19:31;;;;;;;3.35;0.93;;;;;;;;;;8274544;28;20476;-74
2023/05/05 12:23:36;;;;;;;2.38;0.80;;;;;;;;;;8281629;28;20018;-73
2023/05/05 12:27:37;;;;;;;2.30;1.10;;;;;;;;;;8272332;28;20057;-74
2023/05/05 12:31:41;;;;;;;1.67;0.80;;;;;;;;;;8282137;28;20033;-75
2023/05/05 12:35:41;;;;;;;2.53;0.73;;;;;;;;;;8279883;28;20037;-75
2023/05/05 12:39:41;;;;;;;0.80;0.70;;;;;;;;;;8285639;28;20021;-74
2023/05/05 12:43:42;;;;;;;0.70;0.70;;;;;;;;;;8281955;28;20069;-74
2023/05/05 12:47:43;;;;;;;1.70;0.77;;;;;;;;;;8295593;28;20034;-74
2023/05/05 12:51:54;;;;;;;0.75;0.70;;;;;;;;;;8288273;28;20277;-73
2023/05/05 12:55:54;;;;;;;1.13;0.70;;;;;;;;;;8284155;28;20025;-74
2023/05/05 12:59:56;;;;;;;2.90;0.82;;;;;;;;;;8284057;28;20092;-73
2023/05/05 13:04:26;;;;;;;1.85;0.75;;;;;;;;;;8316566;28;20037;-73
2023/05/05 13:08:42;;;;;;;5.93;1.15;;;;;;;;;;8308146;28;20340;-74
2023/05/05 13:12:42;;;;;;;2.17;0.73;;;;;;;;;;8310155;28;20833;-73
2023/05/05 13:16:42;;;;;;;3.08;1.00;;;;;;;;;;8308085;28;20068;-73
2023/05/05 13:20:43;;;;;;;1.40;0.87;;;;;;;;;;8314914;28;20124;-73
2023/05/05 13:24:45;;;;;;;3.20;0.90;;;;;;;;;;8321572;28;20099;-74
2023/05/05 13:28:45;;;;;;;3.80;0.80;;;;;;;;;;8296469;28;20140;-74
2023/05/05 13:32:45;;;;;;;1.50;0.90;;;;;;;;;;8310007;28;20799;-74
2023/05/05 13:36:45;;;;;;;1.42;0.80;;;;;;;;;;8286197;28;20107;-73
2023/05/05 13:40:45;;;;;;;3.13;0.90;;;;;;;;;;8287904;28;20056;-73
2023/05/05 13:44:46;;;;;;;1.45;1.00;;;;;;;;;;8289069;28;20108;-74
2023/05/05 13:48:46;;;;;;;4.30;1.00;;;;;;;;;;8294417;28;20099;-73
2023/05/05 13:52:46;;;;;;;1.95;0.90;;;;;;;;;;8286906;28;20039;-73
2023/05/05 13:56:46;;;;;;;1.60;1.00;;;;;;;;;;8280318;28;20040;-73
2023/05/05 14:00:47;;;;;;;2.53;1.00;;;;;;;;;;8282834;28;20898;-74
2023/05/05 14:04:47;;;;;;;3.40;1.00;;;;;;;;;;8283244;28;20048;-74
2023/05/05 14:08:47;;;;;;;5.90;0.93;;;;;;;;;;8285548;28;20037;-73
2023/05/05 14:12:47;;;;;;;4.75;1.05;;;;;;;;;;8274119;28;20755;-73
2023/05/05 14:16:47;;;;;;;3.15;0.98;;;;;;;;;;8287448;28;20033;-73
2023/05/05 14:20:47;;;;;;;1.55;0.90;;;;;;;;;;8286489;28;20018;-73
2023/05/05 14:24:48;;;;;;;1.00;0.82;;;;;;;;;;8275381;28;20032;-73
2023/05/05 14:28:48;;;;;;;0.80;0.75;;;;;;;;;;8282377;28;20025;-73
2023/05/05 14:32:48;;;;;;;7.57;1.05;;;;;;;;;;8279152;28;20033;-74
2023/05/05 14:36:48;;;;;;;3.05;1.08;;;;;;;;;;8285809;28;20025;-73
2023/05/05 14:40:49;;;;;;;7.93;1.23;;;;;;;;;;8286974;28;20078;-73
2023/05/05 14:44:49;;;;;;;4.97;1.30;;;;;;;;;;8277129;28;20026;-75
2023/05/05 14:48:49;;;;;;;4.20;0.80;;;;;;;;;;8291812;28;20026;-73
2023/05/05 14:52:49;;;;;;;4.37;0.80;;;;;;;;;;8294243;28;20093;-73
2023/05/05 14:56:50;;;;;;;4.55;0.95;;;;;;;;;;8287255;28;20300;-73
2023/05/05 15:00:51;;;;;;;2.70;0.80;;;;;;;;;;8280718;28;20061;-72
2023/05/05 15:04:52;;;;;;;0.93;0.77;;;;;;;;;;8292987;28;20025;-72
2023/05/05 15:08:52;;;;;;;2.63;0.80;;;;;;;;;;8292421;28;20226;-73
2023/05/05 15:12:52;;;;;;;3.20;0.83;;;;;;;;;;8284528;28;20021;-73
2023/05/05 15:16:52;;;;;;;1.02;0.70;;;;;;;;;;8279453;28;20272;-73
2023/05/05 15:20:52;;;;;;;1.90;1.00;;;;;;;;;;8282802;28;20064;-73
2023/05/05 15:24:52;;;;;;;1.92;0.80;;;;;;;;;;8279580;28;20063;-73
2023/05/05 15:28:53;;;;;;;2.35;1.00;;;;;;;;;;8280543;28;20021;-74
2023/05/05 15:32:53;;;;;;;4.82;1.05;;;;;;;;;;8281955;28;20041;-73
2023/05/05 15:36:54;;;;;;;9.00;1.20;;;;;;;;;;8269208;28;20056;-74
2023/05/05 15:40:54;;;;;;;3.17;0.90;;;;;;;;;;8284836;28;20140;-73
2023/05/05 15:44:54;;;;;;;1.77;1.00;;;;;;;;;;8278664;28;20037;-74
2023/05/05 15:48:54;;;;;;;3.33;0.88;;;;;;;;;;8279641;28;20641;-74
2023/05/05 15:52:56;;;;;;;2.00;0.90;;;;;;;;;;8284163;28;20034;-74
2023/05/05 15:56:56;;;;;;;2.25;0.85;;;;;;;;;;8216985;28;20046;-74
2023/05/05 16:00:56;;;;;;;3.50;0.93;;;;;;;;;;8187785;28;20133;-73
2023/05/05 16:04:56;;;;;;;1.00;0.90;;;;;;;;;;8221168;28;20490;-73
2023/05/05 16:08:57;;;;;;;1.27;0.80;;;;;;;;;;8215858;28;20042;-74
2023/05/05 16:12:57;;;;;;;1.38;0.80;;;;;;;;;;8217055;28;20645;-72
2023/05/05 16:16:57;;;;;;;3.67;0.93;;;;;;;;;;8214523;28;20470;-72
2023/05/05 16:20:58;;;;;;;1.77;0.90;;;;;;;;;;8210815;28;20030;-73
2023/05/05 16:24:58;;;;;;;2.80;0.80;;;;;;;;;;8210368;28;20096;-73
2023/05/05 16:28:58;;;;;;;7.80;0.90;;;;;;;;;;8204088;28;20026;-74
2023/05/05 16:32:58;;;;;;;4.22;1.00;;;;;;;;;;8188178;28;20826;-73
2023/05/05 16:36:58;;;;;;;1.40;1.05;;;;;;;;;;8181434;28;20093;-73
2023/05/05 16:40:59;;;;;;;2.57;0.90;;;;;;;;;;8184842;28;20764;-71
2023/05/05 16:44:59;;;;;;;3.28;1.00;;;;;;;;;;8179055;28;20720;-71
2023/05/05 16:48:59;;;;;;;2.28;1.00;;;;;;;;;;8183991;28;20483;-71
2023/05/05 16:52:59;;;;;;;3.03;0.95;;;;;;;;;;8184811;28;20030;-71
2023/05/05 16:57:01;;;;;;;4.18;1.05;;;;;;;;;;8193017;28;20041;-71
2023/05/05 17:01:02;;;;;;;2.45;0.85;;;;;;;;;;8188566;28;20057;-70
2023/05/05 17:05:03;;;;;;;1.88;0.90;;;;;;;;;;8185684;28;20035;-70
2023/05/05 17:09:05;;;;;;;2.70;1.02;;;;;;;;;;8188233;28;20030;-73
2023/05/05 17:13:05;;;;;;;2.20;0.90;;;;;;;;;;8190748;28;20023;-73
2023/05/05 17:17:05;;;;;;;4.23;1.10;;;;;;;;;;8183359;28;20039;-72
2023/05/05 17:21:08;;;;;;;2.97;0.90;;;;;;;;;;8185451;28;20133;-73
2023/05/05 17:25:08;;;;;;;4.20;1.13;;;;;;;;;;8186737;28;20113;-73
2023/05/05 17:29:09;;;;;;;2.50;1.00;;;;;;;;;;8187829;28;20030;-73
2023/05/05 17:33:09;;;;;;;2.97;1.20;;;;;;;;;;8192203;28;20286;-73
2023/05/05 17:37:09;;;;;;;3.25;1.10;;;;;;;;;;8180749;28;20034;-74
2023/05/05 17:41:10;;;;;;;4.43;1.00;;;;;;;;;;8189938;28;20031;-74
2023/05/05 17:45:10;;;;;;;2.45;1.02;;;;;;;;;;8187375;28;20329;-74
2023/05/05 17:49:10;;;;;;;2.85;1.00;;;;;;;;;;8185066;28;20138;-74
2023/05/05 17:53:11;;;;;;;3.05;1.10;;;;;;;;;;8188109;28;20026;-74
2023/05/05 17:57:19;;;;;;;1.48;0.77;;;;;;;;;;8201536;28;20476;-74
2023/05/05 18:01:21;;;;;;;1.67;0.73;;;;;;;;;;8185193;28;20035;-74
2023/05/05 18:05:21;;;;;;;1.73;0.90;;;;;;;;;;8188384;28;20038;-74
2023/05/05 18:09:22;;;;;;;2.08;0.70;;;;;;;;;;8189277;28;20031;-73
2023/05/05 18:13:22;;;;;;;1.17;0.90;;;;;;;;;;8185246;28;20292;-73
2023/05/05 18:17:22;;;;;;;1.40;0.95;;;;;;;;;;8082596;28;76967;-73
2023/05/05 18:21:22;;;;;;;1.40;0.90;;;;;;;;;;8222088;28;20160;-73
2023/05/05 18:25:23;;;;;;;1.43;0.90;;;;;;;;;;8249699;28;20030;-72
2023/05/05 18:29:23;;;;;;;1.03;0.80;;;;;;;;;;8248301;28;20080;-73
2023/05/05 18:33:23;;;;;;;2.35;0.90;;;;;;;;;;8221993;28;20038;-72
2023/05/05 18:37:23;;;;;;;1.70;0.70;;;;;;;;;;8218823;28;20877;-72
2023/05/05 18:41:24;;;;;;;0.63;0.60;;;;;;;;;;8215962;28;20124;-72
2023/05/05 18:45:24;;;;;;;1.63;0.70;;;;;;;;;;8252855;28;21004;-71
2023/05/05 18:49:24;;;;;;;3.33;0.93;;;;;;;;;;8248669;28;20022;-72
2023/05/05 18:53:24;;;;;;;2.28;0.93;;;;;;;;;;8250341;28;20018;-73
2023/05/05 18:57:26;;;;;;;0.95;0.70;;;;;;;;;;8252158;28;20626;-72
2023/05/05 19:01:26;;;;;;;0.80;0.80;;;;;;;;;;8249186;28;20034;-73
2023/05/05 19:05:26;;;;;;;1.20;0.70;;;;;;;;;;8248935;28;20941;-73
2023/05/05 19:09:26;;;;;;;2.47;0.80;;;;;;;;;;8247197;28;20108;-73
2023/05/05 19:13:27;;;;;;;1.00;0.80;;;;;;;;;;8252931;28;20033;-72
2023/05/05 19:17:27;;;;;;;2.53;0.90;;;;;;;;;;8249266;28;20044;-72
2023/05/05 19:21:27;;;;;;;1.10;0.90;;;;;;;;;;8247308;28;20127;-72
2023/05/05 19:25:28;;;;;;;2.25;0.98;;;;;;;;;;8247488;28;20025;-73
2023/05/05 19:29:30;;;;;;;1.50;0.88;;;;;;;;;;8246738;28;20022;-73
2023/05/05 19:33:31;;;;;;;1.65;1.20;;;;;;;;;;8249990;28;20038;-73
2023/05/05 19:37:31;;;;;;;0.77;0.77;;;;;;;;;;8244543;28;20616;-72
2023/05/05 19:41:33;;;;;;;1.85;0.90;;;;;;;;;;8245417;28;20076;-70
2023/05/05 19:45:34;;;;;;;1.42;0.85;;;;;;;;;;8247245;28;20797;-70
2023/05/05 19:49:35;;;;;;;1.85;0.90;;;;;;;;;;8262921;28;20646;-71
2023/05/05 19:53:35;;;;;;;1.00;0.90;;;;;;;;;;8246817;28;21959;-72
2023/05/05 19:57:35;;;;;;;0.98;0.60;;;;;;;;;;8242423;28;20649;-72
2023/05/05 20:01:35;;;;;;;0.63;0.63;;;;;;;;;;8241620;28;20445;-72
2023/05/05 20:05:36;;;;;;;2.05;0.77;;;;;;;;;;8247524;28;20347;-72
2023/05/05 20:09:36;;;;;;;0.60;0.60;;;;;;;;;;8246083;28;20014;-71
2023/05/05 20:13:37;;;;;;;0.77;0.60;;;;;;;;;;8248171;28;20033;-71
2023/05/05 20:17:38;;;;;;;2.45;0.80;;;;;;;;;;8246008;28;20091;-71
2023/05/05 20:21:40;;;;;;;1.77;0.90;;;;;;;;;;8244816;28;20029;-72
2023/05/05 20:25:40;;;;;;;2.38;0.85;;;;;;;;;;8246957;28;20316;-71
2023/05/05 20:29:41;;;;;;;3.30;0.95;;;;;;;;;;8239854;28;20022;-71
2023/05/05 20:33:41;;;;;;;1.60;0.80;;;;;;;;;;8244875;28;20548;-71
2023/05/05 20:37:43;;;;;;;1.35;0.80;;;;;;;;;;8254930;28;20100;-71
2023/05/05 20:41:45;;;;;;;1.20;0.80;;;;;;;;;;8258467;28;20040;-71
2023/05/05 20:45:45;;;;;;;2.25;1.17;;;;;;;;;;8253623;28;20100;-72
2023/05/05 20:49:45;;;;;;;1.95;0.90;;;;;;;;;;8258480;28;20029;-71
2023/05/05 20:53:45;;;;;;;1.73;0.90;;;;;;;;;;8259164;28;20026;-71
2023/05/05 20:57:46;;;;;;;4.00;1.13;;;;;;;;;;8249959;28;20143;-71
2023/05/05 21:01:46;;;;;;;4.05;1.05;;;;;;;;;;8246245;28;20277;-71
2023/05/05 21:05:46;;;;;;;2.83;1.00;;;;;;;;;;8257932;28;20030;-72
2023/05/05 21:09:46;;;;;;;2.13;1.08;;;;;;;;;;8252467;28;20092;-71
2023/05/05 21:13:47;;;;;;;2.22;0.88;;;;;;;;;;8252956;28;20018;-71
2023/05/05 21:17:47;;;;;;;2.58;1.10;;;;;;;;;;8249550;28;20121;-71
2023/05/05 21:21:48;;;;;;;2.20;1.08;;;;;;;;;;8250652;28;20029;-71
2023/05/05 21:25:48;;;;;;;2.47;1.10;;;;;;;;;;8246218;28;20037;-71
2023/05/05 21:29:49;;;;;;;2.45;1.00;;;;;;;;;;8251445;28;20458;-71
2023/05/05 21:33:49;;;;;;;1.77;0.90;;;;;;;;;;8257094;28;20037;-71
2023/05/05 21:37:49;;;;;;;1.63;1.13;;;;;;;;;;8246748;28;20099;-72
2023/05/05 21:41:49;;;;;;;2.35;1.00;;;;;;;;;;8244691;28;21618;-72
2023/05/05 21:45:59;;;;;;;4.63;1.15;;;;;;;;;;8246456;28;20038;-71
2023/05/05 21:50:00;;;;;;;2.83;1.20;;;;;;;;;;8239952;28;20125;-71
2023/05/05 21:54:00;;;;;;;2.40;1.10;;;;;;;;;;8253052;28;20053;-71
2023/05/05 21:58:01;;;;;;;2.08;1.02;;;;;;;;;;8248124;28;20034;-71
2023/05/05 22:02:01;;;;;;;2.78;1.10;;;;;;;;;;8246915;28;20741;-71
2023/05/05 22:06:01;;;;;;;5.90;1.30;;;;;;;;;;8249312;28;20362;-71
2023/05/05 22:10:02;;;;;;;2.80;1.27;;;;;;;;;;8257803;28;20030;-71
2023/05/05 22:14:02;;;;;;;3.05;0.98;;;;;;;;;;8259327;28;20025;-71
2023/05/05 22:18:03;;;;;;;1.10;1.00;;;;;;;;;;8249654;28;20081;-71
2023/05/05 22:22:03;;;;;;;2.57;0.87;;;;;;;;;;8253464;28;20030;-71
2023/05/05 22:26:03;;;;;;;1.30;1.00;;;;;;;;;;8252032;28;20296;-71
2023/05/05 22:30:04;;;;;;;1.27;1.00;;;;;;;;;;8250906;28;20099;-71
2023/05/05 22:34:04;;;;;;;2.47;1.20;;;;;;;;;;8253544;28;20025;-71
2023/05/05 22:38:04;;;;;;;2.75;1.20;;;;;;;;;;8252582;28;20037;-71
2023/05/05 22:42:05;;;;;;;2.75;1.00;;;;;;;;;;8253358;28;20032;-71
2023/05/05 22:46:05;;;;;;;4.32;1.30;;;;;;;;;;8257751;28;20049;-71
2023/05/05 22:50:06;;;;;;;1.92;1.13;;;;;;;;;;8256001;28;20482;-71
2023/05/05 22:54:06;;;;;;;2.65;1.02;;;;;;;;;;8247419;28;20441;-71
2023/05/05 22:58:06;;;;;;;1.80;1.10;;;;;;;;;;8250745;28;20145;-71
2023/05/05 23:02:07;;;;;;;2.42;0.90;;;;;;;;;;8248791;28;20041;-71
2023/05/05 23:06:07;;;;;;;1.70;1.00;;;;;;;;;;8252632;28;20026;-72
2023/05/05 23:10:07;;;;;;;4.60;1.37;;;;;;;;;;8253961;28;20124;-71
2023/05/05 23:14:08;;;;;;;1.80;0.90;;;;;;;;;;8253092;28;20391;-71
2023/05/05 23:18:08;;;;;;;2.05;1.10;;;;;;;;;;8251301;28;20042;-71
2023/05/05 23:22:08;;;;;;;3.60;0.80;;;;;;;;;;8257995;28;20040;-71
2023/05/05 23:26:08;;;;;;;1.23;0.95;;;;;;;;;;8260588;28;20058;-71
2023/05/05 23:30:09;;;;;;;2.30;0.65;;;;;;;;;;8250347;28;20079;-71
2023/05/05 23:34:09;;;;;;;1.15;0.75;;;;;;;;;;8252179;28;20033;-71
2023/05/05 23:38:09;;;;;;;2.27;0.70;;;;;;;;;;8255421;28;20137;-71
2023/05/05 23:42:09;;;;;;;0.82;0.70;;;;;;;;;;8250281;28;21142;-71
2023/05/05 23:46:09;;;;;;;1.00;0.85;;;;;;;;;;8255957;28;20034;-71
2023/05/05 23:50:10;;;;;;;2.47;0.80;;;;;;;;;;8252943;28;20037;-71
2023/05/05 23:54:10;;;;;;;1.40;0.80;;;;;;;;;;8249354;28;20014;-71
2023/05/05 23:58:10;;;;;;;0.90;0.90;;;;;;;;;;8249461;28;20308;-71
